sensor_id;sensor_type;location;lat;lon;timestamp;P1;durP1;ratioP1;P2;durP2;ratioP2
56081;SDS011;41957;52.060;5.138;2022-11-27T00:01:12;13.95;;;3.25;;
56081;SDS011;41957;52.060;5.138;2022-11-27T00:03:40;12.50;;;3.30;;
56081;SDS011;41957;52.060;5.138;2022-11-27T00:06:07;11.70;;;3.20;;
56081;SDS011;41957;52.060;5.138;2022-11-27T00:08:35;13.32;;;3.63;;
56081;SDS011;41957;52.060;5.138;2022-11-27T00:11:04;15.77;;;3.53;;
56081;SDS011;41957;52.060;5.138;2022-11-27T00:13:33;13.05;;;2.95;;
56081;SDS011;41957;52.060;5.138;2022-11-27T00:15:59;12.85;;;3.08;;
56081;SDS011;41957;52.060;5.138;2022-11-27T00:18:24;12.55;;;3.47;;
56081;SDS011;41957;52.060;5.138;2022-11-27T00:20:50;13.40;;;3.50;;
56081;SDS011;41957;52.060;5.138;2022-11-27T00:23:15;13.30;;;3.47;;
56081;SDS011;41957;52.060;5.138;2022-11-27T00:25:48;12.93;;;2.88;;
56081;SDS011;41957;52.060;5.138;2022-11-27T00:28:14;11.98;;;3.63;;
56081;SDS011;41957;52.060;5.138;2022-11-27T00:30:40;13.20;;;3.03;;
56081;SDS011;41957;52.060;5.138;2022-11-27T00:33:05;13.45;;;3.50;;
56081;SDS011;41957;52.060;5.138;2022-11-27T00:35:30;11.52;;;3.05;;
56081;SDS011;41957;52.060;5.138;2022-11-27T00:37:56;13.65;;;3.30;;
56081;SDS011;41957;52.060;5.138;2022-11-27T00:40:21;13.07;;;2.80;;
56081;SDS011;41957;52.060;5.138;2022-11-27T00:42:46;11.93;;;3.25;;
56081;SDS011;41957;52.060;5.138;2022-11-27T00:45:11;12.43;;;3.30;;
56081;SDS011;41957;52.060;5.138;2022-11-27T00:47:37;15.20;;;3.25;;
56081;SDS011;41957;52.060;5.138;2022-11-27T00:50:02;12.60;;;3.35;;
56081;SDS011;41957;52.060;5.138;2022-11-27T00:52:28;11.20;;;3.20;;
56081;SDS011;41957;52.060;5.138;2022-11-27T00:54:53;10.50;;;3.25;;
56081;SDS011;41957;52.060;5.138;2022-11-27T00:57:19;12.25;;;3.28;;
56081;SDS011;41957;52.060;5.138;2022-11-27T00:59:45;11.80;;;3.30;;
56081;SDS011;41957;52.060;5.138;2022-11-27T01:02:10;14.23;;;3.25;;
56081;SDS011;41957;52.060;5.138;2022-11-27T01:04:36;12.82;;;3.40;;
56081;SDS011;41957;52.060;5.138;2022-11-27T01:07:01;10.80;;;3.13;;
56081;SDS011;41957;52.060;5.138;2022-11-27T01:09:26;11.80;;;3.30;;
56081;SDS011;41957;52.060;5.138;2022-11-27T01:11:52;11.30;;;2.95;;
56081;SDS011;41957;52.060;5.138;2022-11-27T01:14:17;11.88;;;3.13;;
56081;SDS011;41957;52.060;5.138;2022-11-27T01:16:43;13.40;;;3.55;;
56081;SDS011;41957;52.060;5.138;2022-11-27T01:19:08;14.23;;;3.45;;
56081;SDS011;41957;52.060;5.138;2022-11-27T01:21:35;10.32;;;2.85;;
56081;SDS011;41957;52.060;5.138;2022-11-27T01:24:01;12.32;;;2.70;;
56081;SDS011;41957;52.060;5.138;2022-11-27T01:26:27;11.48;;;2.95;;
56081;SDS011;41957;52.060;5.138;2022-11-27T01:28:54;11.13;;;3.10;;
56081;SDS011;41957;52.060;5.138;2022-11-27T01:31:21;13.77;;;3.20;;
56081;SDS011;41957;52.060;5.138;2022-11-27T01:33:55;12.40;;;3.00;;
56081;SDS011;41957;52.060;5.138;2022-11-27T01:36:24;10.50;;;2.90;;
56081;SDS011;41957;52.060;5.138;2022-11-27T01:38:50;10.50;;;2.70;;
56081;SDS011;41957;52.060;5.138;2022-11-27T01:41:17;11.90;;;3.05;;
56081;SDS011;41957;52.060;5.138;2022-11-27T01:48:50;11.60;;;2.70;;
56081;SDS011;41957;52.060;5.138;2022-11-27T01:51:18;12.20;;;3.25;;
56081;SDS011;41957;52.060;5.138;2022-11-27T01:53:46;10.32;;;2.88;;
56081;SDS011;41957;52.060;5.138;2022-11-27T01:56:11;10.80;;;2.88;;
56081;SDS011;41957;52.060;5.138;2022-11-27T01:58:37;12.43;;;3.00;;
56081;SDS011;41957;52.060;5.138;2022-11-27T02:01:03;12.05;;;3.30;;
56081;SDS011;41957;52.060;5.138;2022-11-27T02:03:29;11.98;;;3.25;;
56081;SDS011;41957;52.060;5.138;2022-11-27T02:05:55;11.27;;;2.60;;
56081;SDS011;41957;52.060;5.138;2022-11-27T02:08:20;11.77;;;2.75;;
56081;SDS011;41957;52.060;5.138;2022-11-27T02:10:51;12.32;;;2.85;;
56081;SDS011;41957;52.060;5.138;2022-11-27T02:15:55;11.98;;;2.88;;
56081;SDS011;41957;52.060;5.138;2022-11-27T02:18:44;11.45;;;2.95;;
56081;SDS011;41957;52.060;5.138;2022-11-27T02:24:12;10.80;;;2.92;;
56081;SDS011;41957;52.060;5.138;2022-11-27T02:29:12;11.27;;;2.53;;
56081;SDS011;41957;52.060;5.138;2022-11-27T02:31:42;11.25;;;2.97;;
56081;SDS011;41957;52.060;5.138;2022-11-27T02:40:19;12.23;;;2.80;;
56081;SDS011;41957;52.060;5.138;2022-11-27T02:43:06;13.27;;;3.08;;
56081;SDS011;41957;52.060;5.138;2022-11-27T02:45:37;10.27;;;2.70;;
56081;SDS011;41957;52.060;5.138;2022-11-27T02:48:06;13.95;;;3.03;;
56081;SDS011;41957;52.060;5.138;2022-11-27T02:50:33;11.32;;;2.70;;
56081;SDS011;41957;52.060;5.138;2022-11-27T02:53:03;13.10;;;2.85;;
56081;SDS011;41957;52.060;5.138;2022-11-27T02:55:33;9.85;;;2.53;;
56081;SDS011;41957;52.060;5.138;2022-11-27T02:58:02;12.10;;;2.50;;
56081;SDS011;41957;52.060;5.138;2022-11-27T03:00:33;13.27;;;2.80;;
56081;SDS011;41957;52.060;5.138;2022-11-27T03:03:00;12.00;;;2.80;;
56081;SDS011;41957;52.060;5.138;2022-11-27T03:05:31;13.60;;;3.30;;
56081;SDS011;41957;52.060;5.138;2022-11-27T03:10:44;12.93;;;2.75;;
56081;SDS011;41957;52.060;5.138;2022-11-27T03:13:16;11.65;;;2.80;;
56081;SDS011;41957;52.060;5.138;2022-11-27T03:15:50;13.18;;;2.92;;
56081;SDS011;41957;52.060;5.138;2022-11-27T03:26:42;12.85;;;3.03;;
56081;SDS011;41957;52.060;5.138;2022-11-27T03:29:10;11.90;;;3.08;;
56081;SDS011;41957;52.060;5.138;2022-11-27T03:31:38;10.57;;;2.67;;
56081;SDS011;41957;52.060;5.138;2022-11-27T03:34:04;10.65;;;2.78;;
56081;SDS011;41957;52.060;5.138;2022-11-27T03:36:30;12.20;;;2.60;;
56081;SDS011;41957;52.060;5.138;2022-11-27T03:38:55;8.85;;;2.47;;
56081;SDS011;41957;52.060;5.138;2022-11-27T03:46:48;10.87;;;2.80;;
56081;SDS011;41957;52.060;5.138;2022-11-27T03:49:26;9.68;;;2.80;;
56081;SDS011;41957;52.060;5.138;2022-11-27T03:52:07;10.95;;;2.97;;
56081;SDS011;41957;52.060;5.138;2022-11-27T03:54:42;9.38;;;2.80;;
56081;SDS011;41957;52.060;5.138;2022-11-27T03:57:18;10.80;;;2.38;;
56081;SDS011;41957;52.060;5.138;2022-11-27T03:59:49;9.00;;;2.60;;
56081;SDS011;41957;52.060;5.138;2022-11-27T04:02:26;11.32;;;2.70;;
56081;SDS011;41957;52.060;5.138;2022-11-27T04:05:03;12.18;;;2.78;;
56081;SDS011;41957;52.060;5.138;2022-11-27T04:07:29;11.55;;;2.92;;
56081;SDS011;41957;52.060;5.138;2022-11-27T04:09:54;10.13;;;2.70;;
56081;SDS011;41957;52.060;5.138;2022-11-27T04:12:19;12.00;;;2.90;;
56081;SDS011;41957;52.060;5.138;2022-11-27T04:14:45;10.10;;;2.60;;
56081;SDS011;41957;52.060;5.138;2022-11-27T04:17:10;11.45;;;2.50;;
56081;SDS011;41957;52.060;5.138;2022-11-27T04:19:36;12.13;;;2.78;;
56081;SDS011;41957;52.060;5.138;2022-11-27T04:22:01;11.98;;;2.67;;
56081;SDS011;41957;52.060;5.138;2022-11-27T04:24:27;9.32;;;2.70;;
56081;SDS011;41957;52.060;5.138;2022-11-27T04:26:52;10.30;;;2.70;;
56081;SDS011;41957;52.060;5.138;2022-11-27T04:29:17;8.88;;;2.47;;
56081;SDS011;41957;52.060;5.138;2022-11-27T04:31:42;11.13;;;2.70;;
56081;SDS011;41957;52.060;5.138;2022-11-27T04:34:08;9.40;;;2.50;;
56081;SDS011;41957;52.060;5.138;2022-11-27T04:36:33;9.95;;;2.85;;
56081;SDS011;41957;52.060;5.138;2022-11-27T04:38:58;11.13;;;2.60;;
56081;SDS011;41957;52.060;5.138;2022-11-27T04:41:24;10.57;;;2.78;;
56081;SDS011;41957;52.060;5.138;2022-11-27T04:43:49;11.63;;;2.60;;
56081;SDS011;41957;52.060;5.138;2022-11-27T04:46:14;11.20;;;2.72;;
56081;SDS011;41957;52.060;5.138;2022-11-27T04:48:40;10.27;;;2.88;;
56081;SDS011;41957;52.060;5.138;2022-11-27T04:51:05;12.20;;;2.63;;
56081;SDS011;41957;52.060;5.138;2022-11-27T04:53:31;12.75;;;2.95;;
56081;SDS011;41957;52.060;5.138;2022-11-27T04:55:56;11.45;;;2.65;;
56081;SDS011;41957;52.060;5.138;2022-11-27T04:58:21;11.48;;;2.90;;
56081;SDS011;41957;52.060;5.138;2022-11-27T05:00:46;12.05;;;2.88;;
56081;SDS011;41957;52.060;5.138;2022-11-27T05:03:12;12.50;;;2.97;;
56081;SDS011;41957;52.060;5.138;2022-11-27T05:05:37;8.30;;;2.30;;
56081;SDS011;41957;52.060;5.138;2022-11-27T05:08:02;11.45;;;3.08;;
56081;SDS011;41957;52.060;5.138;2022-11-27T05:10:28;10.05;;;2.50;;
56081;SDS011;41957;52.060;5.138;2022-11-27T05:12:53;12.35;;;3.10;;
56081;SDS011;41957;52.060;5.138;2022-11-27T05:15:19;9.88;;;2.50;;
56081;SDS011;41957;52.060;5.138;2022-11-27T05:17:44;10.85;;;3.13;;
56081;SDS011;41957;52.060;5.138;2022-11-27T05:20:09;13.48;;;2.97;;
56081;SDS011;41957;52.060;5.138;2022-11-27T05:22:35;9.55;;;2.80;;
56081;SDS011;41957;52.060;5.138;2022-11-27T05:25:00;10.73;;;2.67;;
56081;SDS011;41957;52.060;5.138;2022-11-27T05:27:25;12.48;;;3.22;;
56081;SDS011;41957;52.060;5.138;2022-11-27T05:29:51;10.02;;;2.47;;
56081;SDS011;41957;52.060;5.138;2022-11-27T05:32:16;11.70;;;3.17;;
56081;SDS011;41957;52.060;5.138;2022-11-27T05:34:41;10.75;;;2.92;;
56081;SDS011;41957;52.060;5.138;2022-11-27T05:37:07;9.38;;;2.47;;
56081;SDS011;41957;52.060;5.138;2022-11-27T05:39:32;11.77;;;3.15;;
56081;SDS011;41957;52.060;5.138;2022-11-27T05:41:57;11.93;;;2.80;;
56081;SDS011;41957;52.060;5.138;2022-11-27T05:44:24;10.75;;;2.88;;
56081;SDS011;41957;52.060;5.138;2022-11-27T05:46:50;11.80;;;3.00;;
56081;SDS011;41957;52.060;5.138;2022-11-27T05:49:15;12.40;;;2.83;;
56081;SDS011;41957;52.060;5.138;2022-11-27T05:51:41;11.93;;;3.17;;
56081;SDS011;41957;52.060;5.138;2022-11-27T05:54:07;10.93;;;2.75;;
56081;SDS011;41957;52.060;5.138;2022-11-27T05:56:32;12.57;;;3.13;;
56081;SDS011;41957;52.060;5.138;2022-11-27T05:58:58;10.95;;;3.13;;
56081;SDS011;41957;52.060;5.138;2022-11-27T06:01:23;10.13;;;2.85;;
56081;SDS011;41957;52.060;5.138;2022-11-27T06:03:48;11.82;;;3.20;;
56081;SDS011;41957;52.060;5.138;2022-11-27T06:06:15;10.07;;;2.97;;
56081;SDS011;41957;52.060;5.138;2022-11-27T06:08:42;11.05;;;2.88;;
56081;SDS011;41957;52.060;5.138;2022-11-27T06:11:09;12.32;;;2.50;;
56081;SDS011;41957;52.060;5.138;2022-11-27T06:13:36;10.80;;;3.17;;
56081;SDS011;41957;52.060;5.138;2022-11-27T06:16:03;10.90;;;2.80;;
56081;SDS011;41957;52.060;5.138;2022-11-27T06:18:33;10.60;;;2.83;;
56081;SDS011;41957;52.060;5.138;2022-11-27T06:20:59;9.70;;;2.78;;
56081;SDS011;41957;52.060;5.138;2022-11-27T06:23:24;10.68;;;2.70;;
56081;SDS011;41957;52.060;5.138;2022-11-27T06:25:49;9.98;;;2.85;;
56081;SDS011;41957;52.060;5.138;2022-11-27T06:28:15;11.27;;;3.13;;
56081;SDS011;41957;52.060;5.138;2022-11-27T06:30:40;10.15;;;2.70;;
56081;SDS011;41957;52.060;5.138;2022-11-27T06:33:05;12.02;;;3.00;;
56081;SDS011;41957;52.060;5.138;2022-11-27T06:35:31;10.10;;;2.83;;
56081;SDS011;41957;52.060;5.138;2022-11-27T06:37:56;10.75;;;2.78;;
56081;SDS011;41957;52.060;5.138;2022-11-27T06:40:21;11.45;;;2.90;;
56081;SDS011;41957;52.060;5.138;2022-11-27T06:42:47;9.23;;;2.55;;
56081;SDS011;41957;52.060;5.138;2022-11-27T06:45:12;10.70;;;2.70;;
56081;SDS011;41957;52.060;5.138;2022-11-27T06:47:38;9.00;;;2.72;;
56081;SDS011;41957;52.060;5.138;2022-11-27T06:50:03;11.07;;;2.80;;
56081;SDS011;41957;52.060;5.138;2022-11-27T06:52:29;11.18;;;2.80;;
56081;SDS011;41957;52.060;5.138;2022-11-27T06:54:54;11.63;;;3.10;;
56081;SDS011;41957;52.060;5.138;2022-11-27T06:57:20;9.85;;;2.53;;
56081;SDS011;41957;52.060;5.138;2022-11-27T06:59:45;11.82;;;2.95;;
56081;SDS011;41957;52.060;5.138;2022-11-27T07:02:12;10.82;;;2.72;;
56081;SDS011;41957;52.060;5.138;2022-11-27T07:04:39;9.65;;;2.83;;
56081;SDS011;41957;52.060;5.138;2022-11-27T07:07:04;11.40;;;3.22;;
56081;SDS011;41957;52.060;5.138;2022-11-27T07:09:29;10.65;;;3.03;;
56081;SDS011;41957;52.060;5.138;2022-11-27T07:11:55;11.30;;;2.70;;
56081;SDS011;41957;52.060;5.138;2022-11-27T07:14:20;13.52;;;2.95;;
56081;SDS011;41957;52.060;5.138;2022-11-27T07:16:45;8.85;;;2.70;;
56081;SDS011;41957;52.060;5.138;2022-11-27T07:19:11;11.02;;;2.80;;
56081;SDS011;41957;52.060;5.138;2022-11-27T07:21:36;9.88;;;2.65;;
56081;SDS011;41957;52.060;5.138;2022-11-27T07:24:02;10.32;;;2.88;;
56081;SDS011;41957;52.060;5.138;2022-11-27T07:26:28;9.70;;;2.65;;
56081;SDS011;41957;52.060;5.138;2022-11-27T07:28:54;11.32;;;2.67;;
56081;SDS011;41957;52.060;5.138;2022-11-27T07:31:21;10.25;;;2.92;;
56081;SDS011;41957;52.060;5.138;2022-11-27T07:33:48;9.00;;;2.50;;
56081;SDS011;41957;52.060;5.138;2022-11-27T07:36:16;10.45;;;2.72;;
56081;SDS011;41957;52.060;5.138;2022-11-27T07:38:46;8.77;;;2.40;;
56081;SDS011;41957;52.060;5.138;2022-11-27T07:41:12;10.35;;;2.55;;
56081;SDS011;41957;52.060;5.138;2022-11-27T07:43:38;11.07;;;2.70;;
56081;SDS011;41957;52.060;5.138;2022-11-27T07:46:04;8.02;;;2.45;;
56081;SDS011;41957;52.060;5.138;2022-11-27T07:48:31;10.93;;;2.70;;
56081;SDS011;41957;52.060;5.138;2022-11-27T07:50:56;10.43;;;2.60;;
56081;SDS011;41957;52.060;5.138;2022-11-27T07:53:22;13.07;;;3.00;;
56081;SDS011;41957;52.060;5.138;2022-11-27T07:55:47;9.18;;;2.42;;
56081;SDS011;41957;52.060;5.138;2022-11-27T07:58:13;10.32;;;2.80;;
56081;SDS011;41957;52.060;5.138;2022-11-27T08:00:38;11.15;;;3.13;;
56081;SDS011;41957;52.060;5.138;2022-11-27T08:03:03;8.68;;;2.58;;
56081;SDS011;41957;52.060;5.138;2022-11-27T08:05:29;11.15;;;2.60;;
56081;SDS011;41957;52.060;5.138;2022-11-27T08:07:58;10.50;;;2.55;;
56081;SDS011;41957;52.060;5.138;2022-11-27T08:10:24;9.50;;;2.83;;
56081;SDS011;41957;52.060;5.138;2022-11-27T08:12:50;10.18;;;2.70;;
56081;SDS011;41957;52.060;5.138;2022-11-27T08:15:15;10.05;;;2.38;;
56081;SDS011;41957;52.060;5.138;2022-11-27T08:17:40;7.95;;;2.22;;
56081;SDS011;41957;52.060;5.138;2022-11-27T08:20:06;8.98;;;2.53;;
56081;SDS011;41957;52.060;5.138;2022-11-27T08:22:32;9.95;;;2.50;;
56081;SDS011;41957;52.060;5.138;2022-11-27T08:24:57;9.10;;;2.80;;
56081;SDS011;41957;52.060;5.138;2022-11-27T08:27:22;10.85;;;2.60;;
56081;SDS011;41957;52.060;5.138;2022-11-27T08:29:48;10.48;;;2.92;;
56081;SDS011;41957;52.060;5.138;2022-11-27T08:32:13;9.38;;;2.40;;
56081;SDS011;41957;52.060;5.138;2022-11-27T08:34:39;7.53;;;2.20;;
56081;SDS011;41957;52.060;5.138;2022-11-27T08:37:05;10.27;;;2.60;;
56081;SDS011;41957;52.060;5.138;2022-11-27T08:39:30;9.40;;;2.50;;
56081;SDS011;41957;52.060;5.138;2022-11-27T08:41:55;10.27;;;2.53;;
56081;SDS011;41957;52.060;5.138;2022-11-27T08:44:21;9.50;;;2.45;;
56081;SDS011;41957;52.060;5.138;2022-11-27T08:46:46;10.05;;;2.40;;
56081;SDS011;41957;52.060;5.138;2022-11-27T08:49:11;9.20;;;2.45;;
56081;SDS011;41957;52.060;5.138;2022-11-27T08:51:37;8.43;;;2.17;;
56081;SDS011;41957;52.060;5.138;2022-11-27T08:54:02;9.88;;;2.28;;
56081;SDS011;41957;52.060;5.138;2022-11-27T08:56:28;9.77;;;2.30;;
56081;SDS011;41957;52.060;5.138;2022-11-27T08:58:53;11.20;;;2.53;;
56081;SDS011;41957;52.060;5.138;2022-11-27T09:01:19;9.75;;;2.30;;
56081;SDS011;41957;52.060;5.138;2022-11-27T09:03:52;10.55;;;2.70;;
56081;SDS011;41957;52.060;5.138;2022-11-27T09:06:25;7.95;;;2.13;;
56081;SDS011;41957;52.060;5.138;2022-11-27T09:08:58;10.48;;;2.50;;
56081;SDS011;41957;52.060;5.138;2022-11-27T09:11:24;10.77;;;2.55;;
56081;SDS011;41957;52.060;5.138;2022-11-27T09:13:51;10.73;;;2.88;;
56081;SDS011;41957;52.060;5.138;2022-11-27T09:16:17;10.18;;;2.70;;
56081;SDS011;41957;52.060;5.138;2022-11-27T09:18:44;9.88;;;2.53;;
56081;SDS011;41957;52.060;5.138;2022-11-27T09:21:10;9.65;;;2.60;;
56081;SDS011;41957;52.060;5.138;2022-11-27T09:23:37;9.25;;;2.40;;
56081;SDS011;41957;52.060;5.138;2022-11-27T09:26:04;11.57;;;3.67;;
56081;SDS011;41957;52.060;5.138;2022-11-27T09:28:32;9.27;;;2.47;;
56081;SDS011;41957;52.060;5.138;2022-11-27T09:30:58;10.20;;;2.65;;
56081;SDS011;41957;52.060;5.138;2022-11-27T09:33:26;10.32;;;2.45;;
56081;SDS011;41957;52.060;5.138;2022-11-27T09:35:52;11.05;;;2.70;;
56081;SDS011;41957;52.060;5.138;2022-11-27T09:38:18;12.63;;;3.00;;
56081;SDS011;41957;52.060;5.138;2022-11-27T09:40:44;9.73;;;2.70;;
56081;SDS011;41957;52.060;5.138;2022-11-27T09:43:13;9.55;;;2.55;;
56081;SDS011;41957;52.060;5.138;2022-11-27T09:45:45;11.13;;;2.78;;
56081;SDS011;41957;52.060;5.138;2022-11-27T09:48:17;10.85;;;2.50;;
56081;SDS011;41957;52.060;5.138;2022-11-27T09:50:47;12.35;;;2.80;;
56081;SDS011;41957;52.060;5.138;2022-11-27T09:53:20;11.95;;;2.50;;
56081;SDS011;41957;52.060;5.138;2022-11-27T09:55:53;11.50;;;2.35;;
56081;SDS011;41957;52.060;5.138;2022-11-27T10:01:14;9.05;;;2.40;;
56081;SDS011;41957;52.060;5.138;2022-11-27T10:03:42;10.32;;;2.60;;
56081;SDS011;41957;52.060;5.138;2022-11-27T10:17:17;11.80;;;2.78;;
56081;SDS011;41957;52.060;5.138;2022-11-27T10:19:51;10.13;;;2.60;;
56081;SDS011;41957;52.060;5.138;2022-11-27T10:22:52;11.68;;;2.85;;
56081;SDS011;41957;52.060;5.138;2022-11-27T10:30:36;13.13;;;2.53;;
56081;SDS011;41957;52.060;5.138;2022-11-27T10:33:12;9.68;;;2.40;;
56081;SDS011;41957;52.060;5.138;2022-11-27T10:35:44;11.35;;;2.60;;
56081;SDS011;41957;52.060;5.138;2022-11-27T10:38:19;8.48;;;2.63;;
56081;SDS011;41957;52.060;5.138;2022-11-27T10:40:53;8.30;;;2.20;;
56081;SDS011;41957;52.060;5.138;2022-11-27T10:43:27;9.35;;;2.63;;
56081;SDS011;41957;52.060;5.138;2022-11-27T10:45:54;9.73;;;2.70;;
56081;SDS011;41957;52.060;5.138;2022-11-27T10:48:23;9.45;;;2.33;;
56081;SDS011;41957;52.060;5.138;2022-11-27T10:50:49;11.65;;;2.65;;
56081;SDS011;41957;52.060;5.138;2022-11-27T10:53:24;9.95;;;2.53;;
56081;SDS011;41957;52.060;5.138;2022-11-27T11:01:24;10.90;;;2.65;;
56081;SDS011;41957;52.060;5.138;2022-11-27T11:04:03;10.25;;;2.63;;
56081;SDS011;41957;52.060;5.138;2022-11-27T11:06:29;8.32;;;2.50;;
56081;SDS011;41957;52.060;5.138;2022-11-27T11:09:02;10.27;;;2.47;;
56081;SDS011;41957;52.060;5.138;2022-11-27T11:11:30;8.80;;;2.30;;
56081;SDS011;41957;52.060;5.138;2022-11-27T11:13:56;11.00;;;2.40;;
56081;SDS011;41957;52.060;5.138;2022-11-27T11:16:23;9.05;;;2.30;;
56081;SDS011;41957;52.060;5.138;2022-11-27T11:18:54;11.13;;;2.70;;
56081;SDS011;41957;52.060;5.138;2022-11-27T11:21:25;10.98;;;2.60;;
56081;SDS011;41957;52.060;5.138;2022-11-27T11:24:00;9.38;;;2.65;;
56081;SDS011;41957;52.060;5.138;2022-11-27T11:26:32;10.23;;;2.60;;
56081;SDS011;41957;52.060;5.138;2022-11-27T11:29:01;9.05;;;2.30;;
56081;SDS011;41957;52.060;5.138;2022-11-27T11:31:30;9.60;;;2.50;;
56081;SDS011;41957;52.060;5.138;2022-11-27T11:34:00;10.50;;;2.47;;
56081;SDS011;41957;52.060;5.138;2022-11-27T11:36:29;9.80;;;2.65;;
56081;SDS011;41957;52.060;5.138;2022-11-27T11:38:55;10.98;;;2.70;;
56081;SDS011;41957;52.060;5.138;2022-11-27T11:41:21;9.93;;;2.60;;
56081;SDS011;41957;52.060;5.138;2022-11-27T11:43:55;9.60;;;2.58;;
56081;SDS011;41957;52.060;5.138;2022-11-27T11:46:24;9.63;;;2.55;;
56081;SDS011;41957;52.060;5.138;2022-11-27T11:49:04;10.02;;;2.55;;
56081;SDS011;41957;52.060;5.138;2022-11-27T11:59:57;12.05;;;2.63;;
56081;SDS011;41957;52.060;5.138;2022-11-27T12:16:27;10.52;;;2.63;;
56081;SDS011;41957;52.060;5.138;2022-11-27T12:22:00;11.68;;;2.60;;
56081;SDS011;41957;52.060;5.138;2022-11-27T12:24:44;9.95;;;2.75;;
56081;SDS011;41957;52.060;5.138;2022-11-27T12:30:19;9.98;;;2.72;;
56081;SDS011;41957;52.060;5.138;2022-11-27T12:36:00;11.25;;;2.95;;
56081;SDS011;41957;52.060;5.138;2022-11-27T12:43:52;9.23;;;2.80;;
56081;SDS011;41957;52.060;5.138;2022-11-27T12:46:35;10.35;;;2.58;;
56081;SDS011;41957;52.060;5.138;2022-11-27T12:54:47;9.88;;;2.67;;
56081;SDS011;41957;52.060;5.138;2022-11-27T13:00:04;10.45;;;2.80;;
56081;SDS011;41957;52.060;5.138;2022-11-27T13:05:29;11.27;;;3.10;;
56081;SDS011;41957;52.060;5.138;2022-11-27T13:08:22;11.40;;;3.03;;
56081;SDS011;41957;52.060;5.138;2022-11-27T13:11:07;10.70;;;3.17;;
56081;SDS011;41957;52.060;5.138;2022-11-27T13:13:47;14.32;;;3.13;;
56081;SDS011;41957;52.060;5.138;2022-11-27T13:24:11;11.52;;;3.40;;
56081;SDS011;41957;52.060;5.138;2022-11-27T13:31:54;35.90;;;14.25;;
56081;SDS011;41957;52.060;5.138;2022-11-27T13:34:23;345.70;;;149.70;;
56081;SDS011;41957;52.060;5.138;2022-11-27T13:37:01;568.63;;;337.52;;
56081;SDS011;41957;52.060;5.138;2022-11-27T13:39:30;456.00;;;250.98;;
56081;SDS011;41957;52.060;5.138;2022-11-27T13:42:00;373.52;;;176.30;;
56081;SDS011;41957;52.060;5.138;2022-11-27T13:44:28;328.98;;;146.23;;
56081;SDS011;41957;52.060;5.138;2022-11-27T13:46:58;304.83;;;137.05;;
56081;SDS011;41957;52.060;5.138;2022-11-27T13:49:29;292.75;;;136.20;;
56081;SDS011;41957;52.060;5.138;2022-11-27T13:52:10;279.88;;;131.73;;
56081;SDS011;41957;52.060;5.138;2022-11-27T13:54:38;274.65;;;125.80;;
56081;SDS011;41957;52.060;5.138;2022-11-27T13:57:15;251.93;;;118.82;;
56081;SDS011;41957;52.060;5.138;2022-11-27T14:00:03;251.75;;;114.35;;
56081;SDS011;41957;52.060;5.138;2022-11-27T14:02:45;236.55;;;112.05;;
56081;SDS011;41957;52.060;5.138;2022-11-27T14:05:14;202.80;;;100.10;;
56081;SDS011;41957;52.060;5.138;2022-11-27T14:07:51;194.98;;;94.68;;
56081;SDS011;41957;52.060;5.138;2022-11-27T14:10:20;189.23;;;92.07;;
56081;SDS011;41957;52.060;5.138;2022-11-27T14:12:54;194.32;;;91.18;;
56081;SDS011;41957;52.060;5.138;2022-11-27T14:17:51;168.57;;;85.28;;
56081;SDS011;41957;52.060;5.138;2022-11-27T14:20:29;177.13;;;85.93;;
56081;SDS011;41957;52.060;5.138;2022-11-27T14:22:57;172.80;;;82.88;;
56081;SDS011;41957;52.060;5.138;2022-11-27T14:25:25;163.38;;;80.53;;
56081;SDS011;41957;52.060;5.138;2022-11-27T14:30:54;148.02;;;73.28;;
56081;SDS011;41957;52.060;5.138;2022-11-27T14:33:23;145.05;;;69.03;;
56081;SDS011;41957;52.060;5.138;2022-11-27T14:38:19;128.80;;;65.75;;
56081;SDS011;41957;52.060;5.138;2022-11-27T14:40:45;136.40;;;65.18;;
56081;SDS011;41957;52.060;5.138;2022-11-27T14:43:15;140.88;;;64.93;;
56081;SDS011;41957;52.060;5.138;2022-11-27T14:45:48;127.07;;;62.38;;
56081;SDS011;41957;52.060;5.138;2022-11-27T14:48:18;117.85;;;60.35;;
56081;SDS011;41957;52.060;5.138;2022-11-27T14:50:47;116.90;;;57.78;;
56081;SDS011;41957;52.060;5.138;2022-11-27T14:53:14;121.28;;;55.20;;
56081;SDS011;41957;52.060;5.138;2022-11-27T14:55:40;115.75;;;56.50;;
56081;SDS011;41957;52.060;5.138;2022-11-27T14:58:06;110.28;;;52.15;;
56081;SDS011;41957;52.060;5.138;2022-11-27T15:00:50;102.45;;;51.60;;
56081;SDS011;41957;52.060;5.138;2022-11-27T15:03:20;105.50;;;51.35;;
56081;SDS011;41957;52.060;5.138;2022-11-27T15:05:53;90.95;;;44.90;;
56081;SDS011;41957;52.060;5.138;2022-11-27T15:08:22;81.50;;;40.70;;
56081;SDS011;41957;52.060;5.138;2022-11-27T15:10:48;77.28;;;38.60;;
56081;SDS011;41957;52.060;5.138;2022-11-27T15:13:20;74.45;;;39.65;;
56081;SDS011;41957;52.060;5.138;2022-11-27T15:15:52;81.68;;;39.83;;
56081;SDS011;41957;52.060;5.138;2022-11-27T15:18:21;79.53;;;40.28;;
56081;SDS011;41957;52.060;5.138;2022-11-27T15:20:48;77.82;;;38.38;;
56081;SDS011;41957;52.060;5.138;2022-11-27T15:28:28;67.00;;;35.27;;
56081;SDS011;41957;52.060;5.138;2022-11-27T15:30:56;61.97;;;32.60;;
56081;SDS011;41957;52.060;5.138;2022-11-27T15:38:45;53.28;;;29.35;;
56081;SDS011;41957;52.060;5.138;2022-11-27T15:41:18;51.20;;;25.77;;
56081;SDS011;41957;52.060;5.138;2022-11-27T15:43:45;53.58;;;25.63;;
56081;SDS011;41957;52.060;5.138;2022-11-27T15:46:11;56.50;;;27.10;;
56081;SDS011;41957;52.060;5.138;2022-11-27T15:48:38;48.28;;;25.52;;
56081;SDS011;41957;52.060;5.138;2022-11-27T15:51:03;49.90;;;26.05;;
56081;SDS011;41957;52.060;5.138;2022-11-27T15:53:29;44.30;;;23.73;;
56081;SDS011;41957;52.060;5.138;2022-11-27T15:55:56;47.15;;;24.40;;
56081;SDS011;41957;52.060;5.138;2022-11-27T15:58:21;49.75;;;23.15;;
56081;SDS011;41957;52.060;5.138;2022-11-27T16:00:47;44.00;;;22.05;;
56081;SDS011;41957;52.060;5.138;2022-11-27T16:03:12;40.35;;;23.85;;
56081;SDS011;41957;52.060;5.138;2022-11-27T16:05:38;46.90;;;22.45;;
56081;SDS011;41957;52.060;5.138;2022-11-27T16:08:03;46.47;;;22.27;;
56081;SDS011;41957;52.060;5.138;2022-11-27T16:10:29;40.72;;;22.40;;
56081;SDS011;41957;52.060;5.138;2022-11-27T16:12:55;40.78;;;21.73;;
56081;SDS011;41957;52.060;5.138;2022-11-27T16:15:21;38.72;;;20.48;;
56081;SDS011;41957;52.060;5.138;2022-11-27T16:17:47;38.78;;;20.27;;
56081;SDS011;41957;52.060;5.138;2022-11-27T16:20:12;36.47;;;19.50;;
56081;SDS011;41957;52.060;5.138;2022-11-27T16:22:38;36.95;;;19.35;;
56081;SDS011;41957;52.060;5.138;2022-11-27T16:25:03;39.58;;;19.90;;
56081;SDS011;41957;52.060;5.138;2022-11-27T16:27:29;36.13;;;19.27;;
56081;SDS011;41957;52.060;5.138;2022-11-27T16:29:54;37.53;;;18.58;;
56081;SDS011;41957;52.060;5.138;2022-11-27T16:32:20;33.60;;;18.35;;
56081;SDS011;41957;52.060;5.138;2022-11-27T16:34:45;35.30;;;17.50;;
56081;SDS011;41957;52.060;5.138;2022-11-27T16:37:10;33.08;;;17.50;;
56081;SDS011;41957;52.060;5.138;2022-11-27T16:39:36;32.88;;;16.83;;
56081;SDS011;41957;52.060;5.138;2022-11-27T16:42:01;29.55;;;16.48;;
56081;SDS011;41957;52.060;5.138;2022-11-27T16:44:27;31.05;;;16.77;;
56081;SDS011;41957;52.060;5.138;2022-11-27T16:46:52;30.15;;;15.40;;
56081;SDS011;41957;52.060;5.138;2022-11-27T16:49:18;31.40;;;15.48;;
56081;SDS011;41957;52.060;5.138;2022-11-27T16:51:44;27.48;;;13.98;;
56081;SDS011;41957;52.060;5.138;2022-11-27T16:54:10;32.00;;;15.70;;
56081;SDS011;41957;52.060;5.138;2022-11-27T16:56:37;33.05;;;14.05;;
56081;SDS011;41957;52.060;5.138;2022-11-27T16:59:05;27.15;;;14.65;;